sensor_id;sensor_type;location;lat;lon;timestamp;temperature;humidity
21676;DHT22;10999;51.332;9.458;2023-12-22T00:00:17;5.40;69.20
21676;DHT22;10999;51.332;9.458;2023-12-22T00:02:54;5.40;71.40
21676;DHT22;10999;51.332;9.458;2023-12-22T00:05:40;5.40;74.60
21676;DHT22;10999;51.332;9.458;2023-12-22T00:09:12;5.40;75.90
21676;DHT22;10999;51.332;9.458;2023-12-22T00:11:44;5.20;78.60
21676;DHT22;10999;51.332;9.458;2023-12-22T00:15:07;5.20;80.20
21676;DHT22;10999;51.332;9.458;2023-12-22T00:17:46;5.10;80.30
21676;DHT22;10999;51.332;9.458;2023-12-22T00:20:18;5.10;80.20
21676;DHT22;10999;51.332;9.458;2023-12-22T00:23:08;5.10;79.00
21676;DHT22;10999;51.332;9.458;2023-12-22T00:26:21;5.10;78.80
21676;DHT22;10999;51.332;9.458;2023-12-22T00:28:49;5.10;76.90
21676;DHT22;10999;51.332;9.458;2023-12-22T00:31:46;5.20;76.00
21676;DHT22;10999;51.332;9.458;2023-12-22T00:34:31;5.20;74.20
21676;DHT22;10999;51.332;9.458;2023-12-22T00:37:16;5.30;71.50
21676;DHT22;10999;51.332;9.458;2023-12-22T00:39:48;5.40;71.40
21676;DHT22;10999;51.332;9.458;2023-12-22T00:45:49;5.40;72.20
21676;DHT22;10999;51.332;9.458;2023-12-22T00:48:57;5.40;73.80
21676;DHT22;10999;51.332;9.458;2023-12-22T00:51:53;5.40;74.00
21676;DHT22;10999;51.332;9.458;2023-12-22T00:54:27;5.40;75.00
21676;DHT22;10999;51.332;9.458;2023-12-22T00:57:17;5.40;74.60
21676;DHT22;10999;51.332;9.458;2023-12-22T01:00:04;5.40;77.70
21676;DHT22;10999;51.332;9.458;2023-12-22T01:02:46;5.40;77.80
21676;DHT22;10999;51.332;9.458;2023-12-22T01:05:35;5.40;77.10
21676;DHT22;10999;51.332;9.458;2023-12-22T01:08:13;5.40;76.20
21676;DHT22;10999;51.332;9.458;2023-12-22T01:10:42;5.50;76.30
21676;DHT22;10999;51.332;9.458;2023-12-22T01:13:24;5.50;74.60
21676;DHT22;10999;51.332;9.458;2023-12-22T01:15:55;5.50;71.40
21676;DHT22;10999;51.332;9.458;2023-12-22T01:18:28;5.50;71.80
21676;DHT22;10999;51.332;9.458;2023-12-22T01:21:08;5.50;70.40
21676;DHT22;10999;51.332;9.458;2023-12-22T01:23:51;5.50;69.70
21676;DHT22;10999;51.332;9.458;2023-12-22T01:26:22;5.50;65.40
21676;DHT22;10999;51.332;9.458;2023-12-22T01:29:11;5.50;65.80
21676;DHT22;10999;51.332;9.458;2023-12-22T01:31:46;5.50;67.10
21676;DHT22;10999;51.332;9.458;2023-12-22T01:34:25;5.50;66.50
21676;DHT22;10999;51.332;9.458;2023-12-22T01:37:13;5.40;66.60
21676;DHT22;10999;51.332;9.458;2023-12-22T01:39:52;5.50;65.80
21676;DHT22;10999;51.332;9.458;2023-12-22T01:42:36;5.40;67.20
21676;DHT22;10999;51.332;9.458;2023-12-22T01:45:08;5.40;67.10
21676;DHT22;10999;51.332;9.458;2023-12-22T01:47:39;5.40;67.10
21676;DHT22;10999;51.332;9.458;2023-12-22T01:50:56;5.40;67.20
21676;DHT22;10999;51.332;9.458;2023-12-22T01:53:41;5.40;67.40
21676;DHT22;10999;51.332;9.458;2023-12-22T01:57:06;5.40;67.00
21676;DHT22;10999;51.332;9.458;2023-12-22T02:01:13;5.40;66.60
21676;DHT22;10999;51.332;9.458;2023-12-22T02:04:05;5.50;66.60
21676;DHT22;10999;51.332;9.458;2023-12-22T02:06:34;5.40;67.50
21676;DHT22;10999;51.332;9.458;2023-12-22T02:09:03;5.40;66.80
21676;DHT22;10999;51.332;9.458;2023-12-22T02:11:47;5.50;67.10
21676;DHT22;10999;51.332;9.458;2023-12-22T02:14:14;5.50;68.70
21676;DHT22;10999;51.332;9.458;2023-12-22T02:19:48;5.40;70.70
21676;DHT22;10999;51.332;9.458;2023-12-22T02:22:24;5.30;77.60
21676;DHT22;10999;51.332;9.458;2023-12-22T02:24:51;5.10;81.80
21676;DHT22;10999;51.332;9.458;2023-12-22T02:27:57;4.90;85.10
21676;DHT22;10999;51.332;9.458;2023-12-22T02:34:12;4.60;87.20
21676;DHT22;10999;51.332;9.458;2023-12-22T02:39:41;4.70;82.20
21676;DHT22;10999;51.332;9.458;2023-12-22T02:48:45;4.80;78.70
21676;DHT22;10999;51.332;9.458;2023-12-22T02:51:35;4.90;75.80
21676;DHT22;10999;51.332;9.458;2023-12-22T02:54:55;5.00;73.20
21676;DHT22;10999;51.332;9.458;2023-12-22T02:58:49;5.10;71.40
21676;DHT22;10999;51.332;9.458;2023-12-22T03:02:39;5.10;72.90
21676;DHT22;10999;51.332;9.458;2023-12-22T03:05:44;5.20;73.10
21676;DHT22;10999;51.332;9.458;2023-12-22T03:08:35;5.20;72.80
21676;DHT22;10999;51.332;9.458;2023-12-22T03:11:59;5.20;72.20
21676;DHT22;10999;51.332;9.458;2023-12-22T03:15:21;5.20;72.10
21676;DHT22;10999;51.332;9.458;2023-12-22T03:18:13;5.20;73.50
21676;DHT22;10999;51.332;9.458;2023-12-22T03:21:18;5.00;78.30
21676;DHT22;10999;51.332;9.458;2023-12-22T03:24:00;4.80;81.00
21676;DHT22;10999;51.332;9.458;2023-12-22T03:27:01;4.60;82.40
21676;DHT22;10999;51.332;9.458;2023-12-22T03:29:36;4.50;80.70
21676;DHT22;10999;51.332;9.458;2023-12-22T03:32:32;4.60;77.90
21676;DHT22;10999;51.332;9.458;2023-12-22T03:38:41;5.00;72.80
21676;DHT22;10999;51.332;9.458;2023-12-22T03:41:56;5.10;72.20
21676;DHT22;10999;51.332;9.458;2023-12-22T03:44:47;5.20;70.40
21676;DHT22;10999;51.332;9.458;2023-12-22T03:47:26;5.20;71.30
21676;DHT22;10999;51.332;9.458;2023-12-22T03:50:09;5.20;70.40
21676;DHT22;10999;51.332;9.458;2023-12-22T03:53:03;5.20;70.10
21676;DHT22;10999;51.332;9.458;2023-12-22T03:55:53;5.20;70.30
21676;DHT22;10999;51.332;9.458;2023-12-22T03:58:41;5.20;70.00
21676;DHT22;10999;51.332;9.458;2023-12-22T04:01:14;5.20;69.40
21676;DHT22;10999;51.332;9.458;2023-12-22T04:03:54;5.20;70.00
21676;DHT22;10999;51.332;9.458;2023-12-22T04:06:42;5.10;70.30
21676;DHT22;10999;51.332;9.458;2023-12-22T04:09:40;5.10;70.50
21676;DHT22;10999;51.332;9.458;2023-12-22T04:12:09;5.10;71.10
21676;DHT22;10999;51.332;9.458;2023-12-22T04:15:27;5.10;71.10
21676;DHT22;10999;51.332;9.458;2023-12-22T04:19:09;5.10;73.40
21676;DHT22;10999;51.332;9.458;2023-12-22T04:22:18;5.00;79.70
21676;DHT22;10999;51.332;9.458;2023-12-22T04:25:14;4.90;82.50
21676;DHT22;10999;51.332;9.458;2023-12-22T04:28:51;4.80;83.80
21676;DHT22;10999;51.332;9.458;2023-12-22T04:32:40;4.80;84.40
21676;DHT22;10999;51.332;9.458;2023-12-22T04:36:39;4.90;80.50
21676;DHT22;10999;51.332;9.458;2023-12-22T04:39:40;4.90;80.40
21676;DHT22;10999;51.332;9.458;2023-12-22T04:42:27;5.00;78.60
21676;DHT22;10999;51.332;9.458;2023-12-22T04:45:34;5.10;74.90
21676;DHT22;10999;51.332;9.458;2023-12-22T04:48:33;5.20;74.10
21676;DHT22;10999;51.332;9.458;2023-12-22T04:51:28;5.30;71.40
21676;DHT22;10999;51.332;9.458;2023-12-22T04:58:29;5.30;69.90
21676;DHT22;10999;51.332;9.458;2023-12-22T05:01:38;5.30;71.70
21676;DHT22;10999;51.332;9.458;2023-12-22T05:05:23;5.20;72.50
21676;DHT22;10999;51.332;9.458;2023-12-22T05:08:57;5.20;73.50
21676;DHT22;10999;51.332;9.458;2023-12-22T05:18:26;5.10;72.70
21676;DHT22;10999;51.332;9.458;2023-12-22T05:22:09;5.10;72.90
21676;DHT22;10999;51.332;9.458;2023-12-22T05:25:52;5.10;74.80
21676;DHT22;10999;51.332;9.458;2023-12-22T05:29:54;5.00;77.20
21676;DHT22;10999;51.332;9.458;2023-12-22T05:33:49;4.90;78.20
21676;DHT22;10999;51.332;9.458;2023-12-22T05:37:36;4.90;79.50
21676;DHT22;10999;51.332;9.458;2023-12-22T05:41:46;4.90;82.00
21676;DHT22;10999;51.332;9.458;2023-12-22T05:45:09;4.70;82.70
21676;DHT22;10999;51.332;9.458;2023-12-22T05:48:47;4.70;83.40
21676;DHT22;10999;51.332;9.458;2023-12-22T05:52:58;4.60;82.70
21676;DHT22;10999;51.332;9.458;2023-12-22T05:56:19;4.70;81.50
21676;DHT22;10999;51.332;9.458;2023-12-22T05:59:43;4.70;82.40
21676;DHT22;10999;51.332;9.458;2023-12-22T06:02:54;4.70;84.90
21676;DHT22;10999;51.332;9.458;2023-12-22T06:10:09;4.50;85.20
21676;DHT22;10999;51.332;9.458;2023-12-22T06:12:36;4.60;84.30
21676;DHT22;10999;51.332;9.458;2023-12-22T06:15:04;4.60;83.60
21676;DHT22;10999;51.332;9.458;2023-12-22T06:17:30;4.60;83.00
21676;DHT22;10999;51.332;9.458;2023-12-22T06:19:57;4.60;83.20
21676;DHT22;10999;51.332;9.458;2023-12-22T06:22:24;4.50;81.10
21676;DHT22;10999;51.332;9.458;2023-12-22T06:24:51;4.60;81.20
21676;DHT22;10999;51.332;9.458;2023-12-22T06:27:18;4.60;80.30
21676;DHT22;10999;51.332;9.458;2023-12-22T06:29:45;4.60;77.10
21676;DHT22;10999;51.332;9.458;2023-12-22T06:32:12;4.70;76.00
21676;DHT22;10999;51.332;9.458;2023-12-22T06:34:39;4.70;74.90
21676;DHT22;10999;51.332;9.458;2023-12-22T06:37:05;4.80;74.60
21676;DHT22;10999;51.332;9.458;2023-12-22T06:39:34;4.90;74.10
21676;DHT22;10999;51.332;9.458;2023-12-22T06:42:01;4.90;74.60
21676;DHT22;10999;51.332;9.458;2023-12-22T06:44:28;4.90;75.10
21676;DHT22;10999;51.332;9.458;2023-12-22T06:46:56;4.90;75.20
21676;DHT22;10999;51.332;9.458;2023-12-22T06:49:23;4.90;76.10
21676;DHT22;10999;51.332;9.458;2023-12-22T06:51:50;5.00;75.40
21676;DHT22;10999;51.332;9.458;2023-12-22T06:54:16;5.00;74.80
21676;DHT22;10999;51.332;9.458;2023-12-22T06:56:44;5.00;74.90
21676;DHT22;10999;51.332;9.458;2023-12-22T06:59:11;5.10;73.90
21676;DHT22;10999;51.332;9.458;2023-12-22T07:01:41;5.10;74.50
21676;DHT22;10999;51.332;9.458;2023-12-22T07:04:20;5.10;74.00
21676;DHT22;10999;51.332;9.458;2023-12-22T07:06:47;5.20;73.60
21676;DHT22;10999;51.332;9.458;2023-12-22T07:11:43;5.20;73.20
21676;DHT22;10999;51.332;9.458;2023-12-22T07:14:10;5.20;72.90
21676;DHT22;10999;51.332;9.458;2023-12-22T07:16:38;5.20;72.40
21676;DHT22;10999;51.332;9.458;2023-12-22T07:19:05;5.20;72.60
21676;DHT22;10999;51.332;9.458;2023-12-22T07:21:32;5.20;73.80
21676;DHT22;10999;51.332;9.458;2023-12-22T07:23:59;5.20;73.70
21676;DHT22;10999;51.332;9.458;2023-12-22T07:26:27;5.20;74.00
21676;DHT22;10999;51.332;9.458;2023-12-22T07:28:54;5.20;74.00
21676;DHT22;10999;51.332;9.458;2023-12-22T07:31:21;5.20;73.20
21676;DHT22;10999;51.332;9.458;2023-12-22T07:33:48;5.20;72.80
21676;DHT22;10999;51.332;9.458;2023-12-22T07:36:15;5.20;72.30
21676;DHT22;10999;51.332;9.458;2023-12-22T07:38:42;5.20;72.30
21676;DHT22;10999;51.332;9.458;2023-12-22T07:41:09;5.20;71.30
21676;DHT22;10999;51.332;9.458;2023-12-22T07:43:38;5.30;71.50
21676;DHT22;10999;51.332;9.458;2023-12-22T07:46:05;5.30;71.20
21676;DHT22;10999;51.332;9.458;2023-12-22T07:48:32;5.30;72.10
21676;DHT22;10999;51.332;9.458;2023-12-22T07:50:59;5.30;72.70
21676;DHT22;10999;51.332;9.458;2023-12-22T07:53:26;5.40;72.40
21676;DHT22;10999;51.332;9.458;2023-12-22T07:55:52;5.40;73.10
21676;DHT22;10999;51.332;9.458;2023-12-22T07:58:19;5.40;72.10
21676;DHT22;10999;51.332;9.458;2023-12-22T08:00:46;5.50;70.80
21676;DHT22;10999;51.332;9.458;2023-12-22T08:03:13;5.50;70.90
21676;DHT22;10999;51.332;9.458;2023-12-22T08:05:40;5.50;70.30
21676;DHT22;10999;51.332;9.458;2023-12-22T08:08:07;5.50;69.90
21676;DHT22;10999;51.332;9.458;2023-12-22T08:10:34;5.50;70.70
21676;DHT22;10999;51.332;9.458;2023-12-22T08:13:00;5.50;69.60
21676;DHT22;10999;51.332;9.458;2023-12-22T08:15:27;5.60;67.90
21676;DHT22;10999;51.332;9.458;2023-12-22T08:18:02;5.60;68.20
21676;DHT22;10999;51.332;9.458;2023-12-22T08:20:29;5.60;67.50
21676;DHT22;10999;51.332;9.458;2023-12-22T08:23:03;5.60;68.70
21676;DHT22;10999;51.332;9.458;2023-12-22T08:25:36;5.60;68.70
21676;DHT22;10999;51.332;9.458;2023-12-22T08:28:03;5.70;68.20
21676;DHT22;10999;51.332;9.458;2023-12-22T08:30:30;5.70;67.70
21676;DHT22;10999;51.332;9.458;2023-12-22T08:32:57;5.70;67.90
21676;DHT22;10999;51.332;9.458;2023-12-22T08:35:24;5.80;68.90
21676;DHT22;10999;51.332;9.458;2023-12-22T08:37:51;5.70;69.20
21676;DHT22;10999;51.332;9.458;2023-12-22T08:40:18;5.80;69.30
21676;DHT22;10999;51.332;9.458;2023-12-22T08:42:52;5.80;70.50
21676;DHT22;10999;51.332;9.458;2023-12-22T08:45:27;5.80;69.50
21676;DHT22;10999;51.332;9.458;2023-12-22T08:47:57;5.80;69.20
21676;DHT22;10999;51.332;9.458;2023-12-22T08:50:24;5.90;69.40
21676;DHT22;10999;51.332;9.458;2023-12-22T08:52:52;5.90;70.30
21676;DHT22;10999;51.332;9.458;2023-12-22T08:55:19;5.90;70.00
21676;DHT22;10999;51.332;9.458;2023-12-22T08:57:49;5.90;70.30
21676;DHT22;10999;51.332;9.458;2023-12-22T09:00:28;6.00;67.60
21676;DHT22;10999;51.332;9.458;2023-12-22T09:02:55;6.00;68.90
21676;DHT22;10999;51.332;9.458;2023-12-22T09:05:22;6.00;69.30
21676;DHT22;10999;51.332;9.458;2023-12-22T09:07:49;6.00;67.20
21676;DHT22;10999;51.332;9.458;2023-12-22T09:10:17;6.00;68.30
21676;DHT22;10999;51.332;9.458;2023-12-22T09:12:44;6.00;66.70
21676;DHT22;10999;51.332;9.458;2023-12-22T09:15:11;6.00;66.50
21676;DHT22;10999;51.332;9.458;2023-12-22T09:17:38;6.00;67.10
21676;DHT22;10999;51.332;9.458;2023-12-22T09:20:08;6.00;65.90
21676;DHT22;10999;51.332;9.458;2023-12-22T09:22:35;6.00;66.50
21676;DHT22;10999;51.332;9.458;2023-12-22T09:25:02;6.00;66.80
21676;DHT22;10999;51.332;9.458;2023-12-22T09:27:29;6.00;68.90
21676;DHT22;10999;51.332;9.458;2023-12-22T09:29:57;5.80;72.40
21676;DHT22;10999;51.332;9.458;2023-12-22T09:32:24;5.70;76.00
21676;DHT22;10999;51.332;9.458;2023-12-22T09:34:51;5.60;79.70
21676;DHT22;10999;51.332;9.458;2023-12-22T09:37:18;5.40;81.60
21676;DHT22;10999;51.332;9.458;2023-12-22T09:39:45;5.20;83.80
21676;DHT22;10999;51.332;9.458;2023-12-22T09:42:13;5.20;86.30
21676;DHT22;10999;51.332;9.458;2023-12-22T09:44:41;5.10;88.40
21676;DHT22;10999;51.332;9.458;2023-12-22T09:47:09;5.00;89.50
21676;DHT22;10999;51.332;9.458;2023-12-22T09:49:39;4.90;90.00
21676;DHT22;10999;51.332;9.458;2023-12-22T09:52:07;5.00;90.40
21676;DHT22;10999;51.332;9.458;2023-12-22T09:54:37;4.90;92.00
21676;DHT22;10999;51.332;9.458;2023-12-22T09:57:05;4.90;93.10
21676;DHT22;10999;51.332;9.458;2023-12-22T09:59:49;4.80;93.60
21676;DHT22;10999;51.332;9.458;2023-12-22T10:02:18;4.80;94.30
21676;DHT22;10999;51.332;9.458;2023-12-22T10:04:45;4.80;94.40
21676;DHT22;10999;51.332;9.458;2023-12-22T10:07:13;4.80;93.70
21676;DHT22;10999;51.332;9.458;2023-12-22T10:09:42;4.80;93.50
21676;DHT22;10999;51.332;9.458;2023-12-22T10:12:13;4.80;93.00
21676;DHT22;10999;51.332;9.458;2023-12-22T10:14:41;4.80;93.10
21676;DHT22;10999;51.332;9.458;2023-12-22T10:17:08;4.80;92.80
21676;DHT22;10999;51.332;9.458;2023-12-22T10:19:35;4.90;93.10
21676;DHT22;10999;51.332;9.458;2023-12-22T10:22:02;4.90;92.00
21676;DHT22;10999;51.332;9.458;2023-12-22T10:24:47;4.90;92.70
21676;DHT22;10999;51.332;9.458;2023-12-22T10:27:14;5.00;92.70
21676;DHT22;10999;51.332;9.458;2023-12-22T10:29:41;5.00;92.40
21676;DHT22;10999;51.332;9.458;2023-12-22T10:32:08;5.10;92.70
21676;DHT22;10999;51.332;9.458;2023-12-22T10:34:36;5.10;91.10
21676;DHT22;10999;51.332;9.458;2023-12-22T10:37:03;5.10;91.60
21676;DHT22;10999;51.332;9.458;2023-12-22T10:39:31;5.20;91.80
21676;DHT22;10999;51.332;9.458;2023-12-22T10:41:59;5.20;91.70
21676;DHT22;10999;51.332;9.458;2023-12-22T10:44:27;5.30;91.90
21676;DHT22;10999;51.332;9.458;2023-12-22T10:46:58;5.30;91.40
21676;DHT22;10999;51.332;9.458;2023-12-22T10:49:26;5.30;91.40
21676;DHT22;10999;51.332;9.458;2023-12-22T10:51:53;5.40;92.20
21676;DHT22;10999;51.332;9.458;2023-12-22T10:54:20;5.40;90.60
21676;DHT22;10999;51.332;9.458;2023-12-22T10:56:47;5.50;90.70
21676;DHT22;10999;51.332;9.458;2023-12-22T10:59:18;5.50;90.40
21676;DHT22;10999;51.332;9.458;2023-12-22T11:01:45;5.60;89.30
21676;DHT22;10999;51.332;9.458;2023-12-22T11:04:17;5.60;88.80
21676;DHT22;10999;51.332;9.458;2023-12-22T11:06:47;5.70;89.30
21676;DHT22;10999;51.332;9.458;2023-12-22T11:09:16;5.70;87.60
21676;DHT22;10999;51.332;9.458;2023-12-22T11:11:45;5.80;87.40
21676;DHT22;10999;51.332;9.458;2023-12-22T11:14:13;5.80;87.10
21676;DHT22;10999;51.332;9.458;2023-12-22T11:16:41;5.90;86.20
21676;DHT22;10999;51.332;9.458;2023-12-22T11:19:15;5.90;86.20
21676;DHT22;10999;51.332;9.458;2023-12-22T11:21:43;5.90;86.60
21676;DHT22;10999;51.332;9.458;2023-12-22T11:24:11;6.00;86.00
21676;DHT22;10999;51.332;9.458;2023-12-22T11:26:41;6.00;86.60
21676;DHT22;10999;51.332;9.458;2023-12-22T11:29:09;6.00;86.60
21676;DHT22;10999;51.332;9.458;2023-12-22T11:31:39;6.00;86.50
21676;DHT22;10999;51.332;9.458;2023-12-22T11:34:07;6.00;85.90
21676;DHT22;10999;51.332;9.458;2023-12-22T11:36:43;6.00;86.00
21676;DHT22;10999;51.332;9.458;2023-12-22T11:39:12;6.00;86.40
21676;DHT22;10999;51.332;9.458;2023-12-22T11:41:40;6.10;86.60
21676;DHT22;10999;51.332;9.458;2023-12-22T11:44:08;6.00;86.50
21676;DHT22;10999;51.332;9.458;2023-12-22T11:46:36;6.00;87.60
21676;DHT22;10999;51.332;9.458;2023-12-22T11:49:04;6.00;89.00
21676;DHT22;10999;51.332;9.458;2023-12-22T11:51:32;6.00;89.30
21676;DHT22;10999;51.332;9.458;2023-12-22T11:54:02;5.90;90.00
21676;DHT22;10999;51.332;9.458;2023-12-22T11:56:30;5.90;90.70
21676;DHT22;10999;51.332;9.458;2023-12-22T11:58:58;5.80;91.10
21676;DHT22;10999;51.332;9.458;2023-12-22T12:01:26;5.80;92.00
21676;DHT22;10999;51.332;9.458;2023-12-22T12:03:58;5.80;92.70
21676;DHT22;10999;51.332;9.458;2023-12-22T12:08:53;5.70;92.50
21676;DHT22;10999;51.332;9.458;2023-12-22T12:11:21;5.70;92.40
21676;DHT22;10999;51.332;9.458;2023-12-22T12:13:49;5.70;92.30
21676;DHT22;10999;51.332;9.458;2023-12-22T12:16:21;5.80;91.80
21676;DHT22;10999;51.332;9.458;2023-12-22T12:18:50;5.70;91.70
21676;DHT22;10999;51.332;9.458;2023-12-22T12:21:19;5.70;91.40
21676;DHT22;10999;51.332;9.458;2023-12-22T12:23:48;5.70;90.90
21676;DHT22;10999;51.332;9.458;2023-12-22T12:26:16;5.70;90.70
21676;DHT22;10999;51.332;9.458;2023-12-22T12:28:45;5.80;90.10
21676;DHT22;10999;51.332;9.458;2023-12-22T12:31:12;5.80;90.10
21676;DHT22;10999;51.332;9.458;2023-12-22T12:33:39;5.80;89.10
21676;DHT22;10999;51.332;9.458;2023-12-22T12:36:07;5.80;89.60
21676;DHT22;10999;51.332;9.458;2023-12-22T12:38:45;5.70;89.80
21676;DHT22;10999;51.332;9.458;2023-12-22T12:41:15;5.70;90.50
21676;DHT22;10999;51.332;9.458;2023-12-22T12:43:43;5.70;90.60
21676;DHT22;10999;51.332;9.458;2023-12-22T12:46:10;5.60;91.00
21676;DHT22;10999;51.332;9.458;2023-12-22T12:48:37;5.60;90.90
21676;DHT22;10999;51.332;9.458;2023-12-22T12:51:05;5.60;90.70
21676;DHT22;10999;51.332;9.458;2023-12-22T12:53:33;5.70;90.80
21676;DHT22;10999;51.332;9.458;2023-12-22T12:56:03;5.70;91.50
21676;DHT22;10999;51.332;9.458;2023-12-22T12:58:31;5.70;90.60
21676;DHT22;10999;51.332;9.458;2023-12-22T13:01:09;5.70;90.10
21676;DHT22;10999;51.332;9.458;2023-12-22T13:03:55;5.70;89.10
21676;DHT22;10999;51.332;9.458;2023-12-22T13:06:23;5.80;89.40
21676;DHT22;10999;51.332;9.458;2023-12-22T13:08:51;5.80;89.40
21676;DHT22;10999;51.332;9.458;2023-12-22T13:11:27;5.80;89.40
21676;DHT22;10999;51.332;9.458;2023-12-22T13:13:54;5.80;88.90
21676;DHT22;10999;51.332;9.458;2023-12-22T13:16:25;5.80;89.70
21676;DHT22;10999;51.332;9.458;2023-12-22T13:18:57;5.90;90.00
21676;DHT22;10999;51.332;9.458;2023-12-22T13:21:25;5.90;90.70
21676;DHT22;10999;51.332;9.458;2023-12-22T13:24:13;5.90;91.80
21676;DHT22;10999;51.332;9.458;2023-12-22T13:26:41;5.80;91.80
21676;DHT22;10999;51.332;9.458;2023-12-22T13:29:09;5.80;92.50
21676;DHT22;10999;51.332;9.458;2023-12-22T13:31:38;5.80;92.90
21676;DHT22;10999;51.332;9.458;2023-12-22T13:34:13;5.80;93.50
21676;DHT22;10999;51.332;9.458;2023-12-22T13:36:41;5.80;93.70
21676;DHT22;10999;51.332;9.458;2023-12-22T13:39:11;5.80;94.10
21676;DHT22;10999;51.332;9.458;2023-12-22T13:41:43;5.80;94.40
21676;DHT22;10999;51.332;9.458;2023-12-22T13:44:16;5.80;94.90
21676;DHT22;10999;51.332;9.458;2023-12-22T13:46:43;5.80;95.80
21676;DHT22;10999;51.332;9.458;2023-12-22T13:49:10;5.80;96.30
21676;DHT22;10999;51.332;9.458;2023-12-22T13:51:44;5.70;97.40
21676;DHT22;10999;51.332;9.458;2023-12-22T13:54:11;5.70;97.80
21676;DHT22;10999;51.332;9.458;2023-12-22T13:56:39;5.60;98.10
21676;DHT22;10999;51.332;9.458;2023-12-22T13:59:10;5.60;98.80
21676;DHT22;10999;51.332;9.458;2023-12-22T14:01:38;5.60;99.40
21676;DHT22;10999;51.332;9.458;2023-12-22T14:04:05;5.50;99.70
21676;DHT22;10999;51.332;9.458;2023-12-22T14:06:31;5.50;99.90
21676;DHT22;10999;51.332;9.458;2023-12-22T14:08:58;5.50;99.90
21676;DHT22;10999;51.332;9.458;2023-12-22T14:11:25;5.50;99.90
21676;DHT22;10999;51.332;9.458;2023-12-22T14:13:55;5.50;99.90
21676;DHT22;10999;51.332;9.458;2023-12-22T14:16:22;5.50;99.90
21676;DHT22;10999;51.332;9.458;2023-12-22T14:18:48;5.50;99.90
21676;DHT22;10999;51.332;9.458;2023-12-22T14:21:16;5.50;99.90
21676;DHT22;10999;51.332;9.458;2023-12-22T14:23:43;5.50;99.90
21676;DHT22;10999;51.332;9.458;2023-12-22T14:26:09;5.50;99.90
21676;DHT22;10999;51.332;9.458;2023-12-22T14:28:37;5.50;99.90
21676;DHT22;10999;51.332;9.458;2023-12-22T14:31:03;5.50;99.90
21676;DHT22;10999;51.332;9.458;2023-12-22T14:33:30;5.60;99.90
21676;DHT22;10999;51.332;9.458;2023-12-22T14:35:57;5.60;99.90
21676;DHT22;10999;51.332;9.458;2023-12-22T14:38:24;5.60;99.90
21676;DHT22;10999;51.332;9.458;2023-12-22T14:40:51;5.60;99.90
21676;DHT22;10999;51.332;9.458;2023-12-22T14:43:18;5.60;99.90
21676;DHT22;10999;51.332;9.458;2023-12-22T14:45:45;5.60;99.90
21676;DHT22;10999;51.332;9.458;2023-12-22T14:48:12;5.60;99.90
21676;DHT22;10999;51.332;9.458;2023-12-22T14:50:39;5.60;99.90
21676;DHT22;10999;51.332;9.458;2023-12-22T14:53:06;5.60;99.90
21676;DHT22;10999;51.332;9.458;2023-12-22T14:55:36;5.60;99.90
21676;DHT22;10999;51.332;9.458;2023-12-22T14:58:03;5.60;99.90
21676;DHT22;10999;51.332;9.458;2023-12-22T15:00:33;5.60;99.90
21676;DHT22;10999;51.332;9.458;2023-12-22T15:03:03;5.60;99.90
21676;DHT22;10999;51.332;9.458;2023-12-22T15:05:30;5.60;99.90
21676;DHT22;10999;51.332;9.458;2023-12-22T15:08:02;5.60;99.90
21676;DHT22;10999;51.332;9.458;2023-12-22T15:10:30;5.60;99.90
21676;DHT22;10999;51.332;9.458;2023-12-22T15:12:56;5.60;99.90
21676;DHT22;10999;51.332;9.458;2023-12-22T15:15:23;5.60;99.90
21676;DHT22;10999;51.332;9.458;2023-12-22T15:17:50;5.60;99.90
21676;DHT22;10999;51.332;9.458;2023-12-22T15:20:18;5.60;99.90
21676;DHT22;10999;51.332;9.458;2023-12-22T15:22:45;5.50;99.90
21676;DHT22;10999;51.332;9.458;2023-12-22T15:25:13;5.60;99.90
21676;DHT22;10999;51.332;9.458;2023-12-22T15:27:40;5.50;99.90
21676;DHT22;10999;51.332;9.458;2023-12-22T15:30:07;5.50;99.90
21676;DHT22;10999;51.332;9.458;2023-12-22T15:32:34;5.50;99.90
21676;DHT22;10999;51.332;9.458;2023-12-22T15:35:01;5.50;99.90
21676;DHT22;10999;51.332;9.458;2023-12-22T15:37:28;5.50;99.90
21676;DHT22;10999;51.332;9.458;2023-12-22T15:39:54;5.50;99.90
21676;DHT22;10999;51.332;9.458;2023-12-22T15:42:21;5.50;99.90
21676;DHT22;10999;51.332;9.458;2023-12-22T15:44:48;5.50;99.90
21676;DHT22;10999;51.332;9.458;2023-12-22T15:47:15;5.50;99.90
21676;DHT22;10999;51.332;9.458;2023-12-22T15:49:41;5.50;99.90
21676;DHT22;10999;51.332;9.458;2023-12-22T15:52:08;5.50;99.90
21676;DHT22;10999;51.332;9.458;2023-12-22T15:54:35;5.50;99.90
21676;DHT22;10999;51.332;9.458;2023-12-22T15:57:04;5.50;99.90
21676;DHT22;10999;51.332;9.458;2023-12-22T15:59:31;5.50;99.90
21676;DHT22;10999;51.332;9.458;2023-12-22T16:01:58;5.50;99.90
21676;DHT22;10999;51.332;9.458;2023-12-22T16:04:24;5.60;99.90
21676;DHT22;10999;51.332;9.458;2023-12-22T16:06:51;5.60;99.90
21676;DHT22;10999;51.332;9.458;2023-12-22T16:09:18;5.60;99.90
21676;DHT22;10999;51.332;9.458;2023-12-22T16:11:45;5.60;99.90
21676;DHT22;10999;51.332;9.458;2023-12-22T16:14:11;5.60;99.90
21676;DHT22;10999;51.332;9.458;2023-12-22T16:16:39;5.60;99.90
21676;DHT22;10999;51.332;9.458;2023-12-22T16:19:06;5.60;99.90
21676;DHT22;10999;51.332;9.458;2023-12-22T16:21:40;5.60;99.90
21676;DHT22;10999;51.332;9.458;2023-12-22T16:24:11;5.60;99.90
21676;DHT22;10999;51.332;9.458;2023-12-22T16:26:38;5.60;99.90
21676;DHT22;10999;51.332;9.458;2023-12-22T16:29:05;5.70;99.90
21676;DHT22;10999;51.332;9.458;2023-12-22T16:31:32;5.70;99.90
21676;DHT22;10999;51.332;9.458;2023-12-22T16:33:59;5.70;99.90
21676;DHT22;10999;51.332;9.458;2023-12-22T16:36:26;5.70;99.90
21676;DHT22;10999;51.332;9.458;2023-12-22T16:38:53;5.80;99.90
21676;DHT22;10999;51.332;9.458;2023-12-22T16:41:19;5.80;99.90
21676;DHT22;10999;51.332;9.458;2023-12-22T16:43:47;5.80;99.90
21676;DHT22;10999;51.332;9.458;2023-12-22T16:46:19;5.80;99.90
21676;DHT22;10999;51.332;9.458;2023-12-22T16:48:46;5.80;99.90
21676;DHT22;10999;51.332;9.458;2023-12-22T16:51:13;5.80;99.90
21676;DHT22;10999;51.332;9.458;2023-12-22T16:53:40;5.80;99.90
21676;DHT22;10999;51.332;9.458;2023-12-22T16:56:07;5.90;99.90
21676;DHT22;10999;51.332;9.458;2023-12-22T16:58:34;5.90;99.90
21676;DHT22;10999;51.332;9.458;2023-12-22T17:01:02;5.80;99.90
21676;DHT22;10999;51.332;9.458;2023-12-22T17:03:49;5.80;99.90
21676;DHT22;10999;51.332;9.458;2023-12-22T17:06:16;5.80;99.90
21676;DHT22;10999;51.332;9.458;2023-12-22T17:08:42;5.80;99.90
21676;DHT22;10999;51.332;9.458;2023-12-22T17:11:10;5.90;99.90
21676;DHT22;10999;51.332;9.458;2023-12-22T17:13:37;5.90;99.90
21676;DHT22;10999;51.332;9.458;2023-12-22T17:16:05;5.90;99.90
21676;DHT22;10999;51.332;9.458;2023-12-22T17:18:32;5.90;99.90
21676;DHT22;10999;51.332;9.458;2023-12-22T17:20:59;5.90;99.90
21676;DHT22;10999;51.332;9.458;2023-12-22T17:23:31;6.00;99.90
21676;DHT22;10999;51.332;9.458;2023-12-22T17:25:58;6.00;99.90
21676;DHT22;10999;51.332;9.458;2023-12-22T17:28:25;6.00;99.90
21676;DHT22;10999;51.332;9.458;2023-12-22T17:30:52;6.00;99.90